Time;durP1;ratioP1;P1;durP2;ratioP2;P2;SDS_P1;SDS_P2;PMS_P1;PMS_P2;Temp;Humidity;BMP_temperature;BMP_pressure;BME280_temperature;BME280_humidity;BME280_pressure;Samples;Min_cycle;Max_cycle;Signal;HPM_P1;HPM_P2
2022/11/11 00:00:57;;;;;;;0.25;0.22;;;;;;;8.24;100.00;103019.59;10447494;28;20116;-78
2022/11/11 00:06:17;;;;;;;1.08;0.52;;;;;;;8.29;100.00;103032.75;10447768;28;20049;-78
2022/11/11 00:11:38;;;;;;;1.42;0.47;;;;;;;8.21;100.00;103034.81;10456993;28;20455;-77
2022/11/11 00:28:18;;;;;;;0.10;0.10;;;;;;;8.15;100.00;103039.53;10445524;28;20045;-78
2022/11/11 00:33:39;;;;;;;4.47;0.80;;;;;;;8.18;100.00;103056.81;10457562;28;20135;-77
2022/11/11 00:38:59;;;;;;;0.57;0.20;;;;;;;8.07;100.00;103062.06;10456935;28;20042;-77
2022/11/11 00:44:19;;;;;;;0.28;0.10;;;;;;;7.97;100.00;103079.28;10458813;28;20053;-78
2022/11/11 00:55:18;;;;;;;0.30;0.30;;;;;;;7.97;100.00;103098.13;10457587;28;20053;-78
2022/11/11 01:00:38;;;;;;;0.75;0.70;;;;;;;7.89;100.00;103115.56;10457447;28;20076;-77
2022/11/11 01:06:05;;;;;;;2.53;0.40;;;;;;;7.92;100.00;103113.22;10445044;28;20425;-77
2022/11/11 01:11:49;;;;;;;1.42;0.95;;;;;;;7.80;100.00;103117.44;10433548;28;20040;-78
2022/11/11 01:17:08;;;;;;;1.98;0.52;;;;;;;7.81;100.00;103119.22;10455536;28;20045;-78
2022/11/11 01:22:29;;;;;;;0.35;0.30;;;;;;;7.82;100.00;103100.50;10455398;28;20045;-77
2022/11/11 01:27:49;;;;;;;0.43;0.38;;;;;;;7.82;100.00;103100.50;10451713;28;20045;-77
2022/11/11 01:33:10;;;;;;;0.37;0.33;;;;;;;7.86;100.00;103102.47;10443105;28;20057;-77
2022/11/11 01:38:31;;;;;;;1.33;0.63;;;;;;;8.02;100.00;103093.31;10466872;28;20296;-77
2022/11/11 01:43:51;;;;;;;;;;;;;;;8.00;100.00;103097.47;10438680;28;20061;-77
2022/11/11 01:49:21;;;;;;;3.70;0.98;;;;;;;8.09;100.00;103099.03;10454327;28;19920;-78
2022/11/11 01:54:59;;;;;;;1.85;0.93;;;;;;;8.16;100.00;103108.03;10440279;28;20056;-79
2022/11/11 02:00:20;;;;;;;0.47;0.45;;;;;;;8.11;100.00;103099.13;10442594;28;20045;-78
2022/11/11 02:05:41;;;;;;;1.02;0.55;;;;;;;8.13;100.00;103097.56;10454311;28;20420;-77
2022/11/11 02:11:10;;;;;;;1.05;0.80;;;;;;;8.16;100.00;103108.03;10454496;28;20591;-78
2022/11/11 02:16:30;;;;;;;0.73;0.47;;;;;;;8.17;100.00;103111.50;10455145;28;20049;-77
2022/11/11 02:21:57;;;;;;;0.63;0.57;;;;;;;8.13;100.00;103120.66;10453146;28;20052;-77
2022/11/11 02:27:20;;;;;;;1.65;1.30;;;;;;;8.15;100.00;103131.03;10453270;28;20447;-78
2022/11/11 02:32:45;;;;;;;1.13;0.47;;;;;;;8.12;100.00;103123.13;10450343;28;20049;-77
2022/11/11 02:38:07;;;;;;;1.58;0.95;;;;;;;8.16;100.00;103128.56;10444248;28;20420;-78
2022/11/11 02:43:29;;;;;;;1.50;0.73;;;;;;;8.17;100.00;103120.09;10449534;28;20071;-77
2022/11/11 02:48:49;;;;;;;0.80;0.40;;;;;;;8.16;100.00;103113.16;10426906;28;20045;-77
2022/11/11 02:54:11;;;;;;;1.73;1.40;;;;;;;8.17;100.00;103120.09;10454719;28;20053;-78
2022/11/11 02:59:31;;;;;;;3.17;0.73;;;;;;;8.20;100.00;103135.72;10440937;28;20052;-77
2022/11/11 03:04:54;;;;;;;2.75;1.65;;;;;;;8.24;100.00;103137.72;10454118;28;20053;-78
2022/11/11 03:10:15;;;;;;;0.57;0.52;;;;;;;8.23;100.00;103150.47;10448557;28;20120;-78
2022/11/11 03:15:35;;;;;;;1.65;1.05;;;;;;;8.24;100.00;103145.44;10434096;28;20479;-77
2022/11/11 03:21:04;;;;;;;2.88;1.33;;;;;;;8.22;100.00;103144.44;10448474;28;20057;-79
2022/11/11 03:26:45;;;;;;;1.10;0.75;;;;;;;8.28;100.00;103149.09;10441346;28;20045;-78
2022/11/11 03:32:06;;;;;;;2.60;0.83;;;;;;;8.21;100.00;103137.53;10439960;28;20057;-77
2022/11/11 03:43:06;;;;;;;2.10;0.60;;;;;;;8.20;100.00;103135.72;10447501;28;20048;-78
2022/11/11 03:48:28;;;;;;;0.47;0.47;;;;;;;8.23;100.00;103146.19;10459919;28;20508;-78
2022/11/11 03:53:48;;;;;;;3.53;1.35;;;;;;;8.26;100.00;103156.72;10451517;28;20050;-78
2022/11/11 03:59:08;;;;;;;2.45;0.60;;;;;;;8.22;100.00;103154.72;10458976;28;20049;-78
2022/11/11 04:10:40;;;;;;;1.02;0.88;;;;;;;8.26;100.00;103159.28;10460429;28;20053;-77
2022/11/11 04:16:05;;;;;;;5.30;3.50;;;;;;;8.24;100.00;103158.25;10462495;28;20029;-78
2022/11/11 04:21:42;;;;;;;8.82;1.42;;;;;;;8.25;100.00;103175.47;10462272;28;20041;-77
2022/11/11 04:27:05;;;;;;;2.80;1.55;;;;;;;8.24;100.00;103172.78;10450720;28;20037;-78
2022/11/11 04:32:34;;;;;;;1.40;0.60;;;;;;;8.27;100.00;103178.13;10445271;28;20052;-79
2022/11/11 04:41:02;;;;;;;3.20;1.90;;;;;;;8.25;100.00;103196.00;10458378;28;20057;-77
2022/11/11 04:45:26;;;;;;;2.40;1.00;;;;;;;8.20;100.00;103191.31;10420287;28;20057;-78
2022/11/11 04:49:15;;;;;;;1.25;0.77;;;;;;;8.21;100.00;103187.97;10460151;28;20496;-78
2022/11/11 04:56:46;;;;;;;1.45;1.23;;;;;;;8.18;100.00;103180.94;10454247;28;20049;-77
2022/11/11 05:00:17;;;;;;;3.58;1.60;;;;;;;8.14;100.00;103189.22;10458336;28;20057;-77
2022/11/11 05:11:18;;;;;;;0.60;0.57;;;;;;;8.19;100.00;103190.44;10458354;28;20053;-77
2022/11/11 05:22:31;;;;;;;1.70;1.13;;;;;;;8.04;100.00;103184.19;10457785;28;20049;-78
2022/11/11 05:27:52;;;;;;;2.25;1.25;;;;;;;7.87;100.00;103183.84;10447588;28;20508;-78
2022/11/11 05:33:12;;;;;;;2.03;0.93;;;;;;;7.84;100.00;103185.28;10458194;28;20061;-78
2022/11/11 05:38:32;;;;;;;6.72;2.30;;;;;;;7.75;100.00;103190.63;10443569;28;20580;-76
2022/11/11 05:43:53;;;;;;;0.70;0.70;;;;;;;7.75;100.00;103195.78;10443316;28;20061;-78
2022/11/11 05:49:16;;;;;;;2.45;1.35;;;;;;;7.68;100.00;103201.22;10441492;28;20496;-76
2022/11/11 05:54:37;;;;;;;4.03;2.42;;;;;;;7.63;100.00;103199.19;10443388;28;20504;-77
2022/11/11 05:59:57;;;;;;;2.75;1.30;;;;;;;7.58;100.00;103200.53;10456388;28;20405;-79
2022/11/11 06:05:17;;;;;;;2.92;0.70;;;;;;;7.51;100.00;103200.84;10456171;28;20492;-77
2022/11/11 06:10:37;;;;;;;5.93;0.93;;;;;;;7.47;100.00;103203.97;10456789;28;20488;-77
2022/11/11 06:15:58;;;;;;;1.38;0.98;;;;;;;7.46;100.00;103217.56;10432653;28;20041;-77
2022/11/11 06:21:18;;;;;;;0.68;0.55;;;;;;;7.42;100.00;103205.28;10455369;28;20052;-77
2022/11/11 06:26:39;;;;;;;1.15;0.88;;;;;;;7.34;100.00;103198.66;10455515;28;20076;-77
2022/11/11 06:31:59;;;;;;;1.73;0.57;;;;;;;7.27;100.00;103203.31;10456361;28;20049;-77
2022/11/11 06:37:19;;;;;;;1.02;0.93;;;;;;;7.12;100.00;103208.19;10440458;28;20037;-77
2022/11/11 06:42:38;;;;;;;0.83;0.70;;;;;;;7.12;100.00;103225.22;10461954;28;20037;-78
2022/11/11 06:48:00;;;;;;;0.20;0.20;;;;;;;7.08;100.00;103238.59;10460622;28;20484;-78
2022/11/11 06:53:21;;;;;;;1.25;0.47;;;;;;;7.12;100.00;103235.47;10450968;28;20076;-78
2022/11/11 06:58:42;;;;;;;1.17;0.75;;;;;;;7.06;100.00;103241.03;10454717;28;20041;-78
2022/11/11 07:04:01;;;;;;;0.77;0.40;;;;;;;7.07;100.00;103247.97;10447965;28;20492;-77
2022/11/11 07:09:24;;;;;;;1.08;1.00;;;;;;;7.05;100.00;103259.75;10427187;28;20049;-78
2022/11/11 07:14:52;;;;;;;0.95;0.82;;;;;;;7.08;100.00;103253.97;10460918;28;20385;-78
2022/11/11 07:20:12;;;;;;;0.35;0.35;;;;;;;7.09;100.00;103245.50;10438622;28;20048;-77
2022/11/11 07:25:39;;;;;;;1.25;0.63;;;;;;;7.05;100.00;103234.13;10447276;28;20061;-77
2022/11/11 07:30:59;;;;;;;0.22;0.22;;;;;;;7.15;100.00;103230.59;10459853;28;20520;-77
2022/11/11 07:36:19;;;;;;;0.55;0.28;;;;;;;7.16;100.00;103247.78;10462771;28;20492;-76
2022/11/11 07:41:40;;;;;;;1.35;1.13;;;;;;;7.26;100.00;103240.00;10451132;28;20045;-78
2022/11/11 07:47:00;;;;;;;0.30;0.30;;;;;;;7.29;100.00;103241.94;10460794;28;20447;-77
2022/11/11 07:52:22;;;;;;;;;;;;;;;7.39;100.00;103257.22;10451659;28;20057;-78
2022/11/11 07:57:42;;;;;;;0.13;0.03;;;;;;;7.48;100.00;103241.66;10453501;28;19928;-77
2022/11/11 08:03:03;;;;;;;0.73;0.57;;;;;;;7.58;100.00;103241.56;10431850;28;20053;-78
2022/11/11 08:08:28;;;;;;;1.55;0.98;;;;;;;7.72;100.00;103231.44;10458167;28;20049;-78
2022/11/11 08:13:50;;;;;;;1.45;0.45;;;;;;;7.85;100.00;103213.66;10427162;28;20061;-77
2022/11/11 08:19:10;;;;;;;0.28;0.20;;;;;;;8.00;100.00;103213.00;10444614;28;20076;-77
2022/11/11 08:24:30;;;;;;;3.05;1.40;;;;;;;7.98;100.00;103199.16;10452809;28;20053;-77
2022/11/11 08:30:10;;;;;;;0.25;0.22;;;;;;;8.03;100.00;103198.72;10423555;28;20125;-77
2022/11/11 08:35:31;;;;;;;8.80;0.40;;;;;;;8.10;100.00;103200.03;10441298;28;20128;-78
2022/11/11 08:40:51;;;;;;;0.57;0.25;;;;;;;8.16;100.00;103205.59;10438170;28;20475;-77
2022/11/11 08:46:11;;;;;;;1.80;0.38;;;;;;;8.31;100.00;103200.72;10438950;28;20045;-77
2022/11/11 08:51:34;;;;;;;0.20;0.15;;;;;;;8.28;100.00;103199.59;10452547;28;20064;-77
2022/11/11 08:57:03;;;;;;;0.22;0.22;;;;;;;8.37;100.00;103206.28;10453804;28;20049;-78
2022/11/11 09:02:23;;;;;;;0.90;0.63;;;;;;;8.48;100.00;103201.94;10434903;28;20493;-78
2022/11/11 09:07:43;;;;;;;0.38;0.20;;;;;;;8.53;100.00;103203.16;10450851;28;20053;-77
2022/11/11 09:13:04;;;;;;;1.95;0.80;;;;;;;8.62;100.00;103190.09;10428084;28;20463;-78
2022/11/11 09:18:25;;;;;;;0.65;0.45;;;;;;;8.77;100.00;103192.81;10474362;28;20045;-77
2022/11/11 09:23:45;;;;;;;0.10;0.10;;;;;;;8.67;100.00;103185.28;10463284;28;20053;-77
2022/11/11 09:29:05;;;;;;;0.38;0.20;;;;;;;8.92;100.00;103181.81;10451304;28;20046;-77
2022/11/11 09:34:26;;;;;;;0.88;0.30;;;;;;;8.98;100.00;103172.88;10434099;28;20053;-77
2022/11/11 09:39:46;;;;;;;0.88;0.52;;;;;;;9.00;100.00;103165.25;10440750;28;20059;-76
2022/11/11 09:45:15;;;;;;;0.05;0.05;;;;;;;9.18;100.00;103161.38;10453725;28;20049;-76
2022/11/11 09:50:38;;;;;;;0.10;0.10;;;;;;;9.19;100.00;103157.13;10454050;28;20033;-76
2022/11/11 09:56:13;;;;;;;0.20;0.20;;;;;;;9.53;100.00;103160.28;10439687;28;20488;-77
2022/11/11 10:01:54;;;;;;;0.73;0.20;;;;;;;9.53;100.00;103146.53;10431565;28;20416;-77
2022/11/11 10:07:27;;;;;;;2.30;0.45;;;;;;;9.96;100.00;103138.13;10456321;28;20037;-77
2022/11/11 10:12:58;;;;;;;0.15;0.10;;;;;;;10.26;100.00;103102.22;10461923;28;20049;-77
2022/11/11 10:18:38;;;;;;;;;;;;;;;10.61;100.00;103088.09;10434736;28;20073;-75
2022/11/11 10:24:10;;;;;;;0.22;0.17;;;;;;;10.50;100.00;103066.81;10448313;28;19955;-76
2022/11/11 10:29:43;;;;;;;0.63;0.28;;;;;;;10.61;100.00;103072.63;10438418;28;20405;-77
2022/11/11 10:35:20;;;;;;;0.00;0.00;;;;;;;10.85;100.00;103069.72;10450521;28;20148;-77
2022/11/11 10:40:47;;;;;;;2.17;0.20;;;;;;;10.89;100.00;103064.84;10447161;28;20053;-79
2022/11/11 10:46:18;;;;;;;0.35;0.35;;;;;;;11.20;100.00;103063.19;10460929;28;20455;-77
2022/11/11 10:51:50;;;;;;;1.70;0.20;;;;;;;11.52;100.00;103059.88;10454218;28;20076;-77
2022/11/11 10:57:19;;;;;;;0.85;0.77;;;;;;;11.38;100.00;103043.59;10460350;28;20151;-77
2022/11/11 11:03:13;;;;;;;1.45;0.38;;;;;;;12.00;100.00;103041.88;10465059;28;20049;-77
2022/11/11 11:08:39;;;;;;;0.47;0.35;;;;;;;11.62;100.00;103024.22;10449124;28;20069;-77
2022/11/11 11:14:40;;;;;;;0.45;0.20;;;;;;;12.04;100.00;103020.56;10457324;28;20057;-77
2022/11/11 11:20:17;;;;;;;0.38;0.38;;;;;;;12.17;100.00;103018.66;10450353;28;20409;-77
2022/11/11 11:25:37;;;;;;;0.10;0.10;;;;;;;11.79;100.00;103025.19;10450476;28;20049;-78
2022/11/11 11:31:06;;;;;;;0.98;0.65;;;;;;;12.35;100.00;103022.19;10453713;28;20049;-78
2022/11/11 11:36:29;;;;;;;0.00;0.00;;;;;;;12.43;100.00;103013.94;10456286;28;20492;-77
2022/11/11 11:41:50;;;;;;;0.47;0.30;;;;;;;12.40;100.00;102998.31;10448828;28;20041;-77
2022/11/11 11:47:11;;;;;;;0.15;0.15;;;;;;;11.97;100.00;102997.78;10450082;28;20489;-77
2022/11/11 11:52:42;;;;;;;;;;;;;;;11.77;100.00;103003.53;10459839;28;20139;-79
2022/11/11 11:58:26;;;;;;;0.17;0.17;;;;;;;12.21;100.00;103002.50;10456018;28;20360;-78
2022/11/11 12:04:29;;;;;;;0.13;0.08;;;;;;;12.48;100.00;102999.56;10453930;28;20041;-78
2022/11/11 12:10:24;;;;;;;0.25;0.20;;;;;;;12.09;100.00;102996.69;10446553;28;20049;-78
2022/11/11 12:16:23;;;;;;;0.03;0.00;;;;;;;12.29;100.00;103001.22;10473035;28;20045;-78
2022/11/11 12:22:07;;;;;;;1.48;0.40;;;;;;;12.26;100.00;102995.84;10494010;28;20044;-77
2022/11/11 12:27:37;;;;;;;0.40;0.00;;;;;;;12.20;100.00;102992.97;10458777;28;20128;-78
2022/11/11 12:33:35;;;;;;;0.80;0.33;;;;;;;12.25;100.00;102983.75;10459032;28;20419;-78
2022/11/11 12:39:22;;;;;;;0.13;0.13;;;;;;;12.32;100.00;102974.63;10451037;28;20299;-77
2022/11/11 12:44:59;;;;;;;0.20;0.10;;;;;;;12.38;100.00;102975.84;10460959;28;20049;-78
2022/11/11 12:50:26;;;;;;;0.35;0.05;;;;;;;12.38;100.00;102962.00;10460734;28;20044;-79
2022/11/11 12:55:49;;;;;;;0.10;0.10;;;;;;;12.50;100.00;102964.34;10461408;28;20041;-78
2022/11/11 13:01:24;;;;;;;0.40;0.20;;;;;;;13.19;100.00;102959.13;10454866;28;20045;-78
2022/11/11 13:07:07;;;;;;;0.00;0.00;;;;;;;12.75;100.00;102956.13;10452125;28;20489;-78
2022/11/11 13:12:39;;;;;;;0.28;0.20;;;;;;;12.64;100.00;102965.94;10461547;28;20053;-78
2022/11/11 13:18:00;;;;;;;1.40;0.43;;;;;;;12.61;100.00;102968.38;10461014;28;20049;-78
2022/11/11 13:23:20;;;;;;;0.50;0.20;;;;;;;12.64;100.00;102975.41;10449698;28;20052;-77
2022/11/11 13:28:48;;;;;;;0.15;0.13;;;;;;;12.97;100.00;102968.44;10452645;28;20048;-77
2022/11/11 13:34:13;;;;;;;0.03;0.03;;;;;;;12.94;100.00;102967.41;10462538;28;20123;-77
2022/11/11 13:39:40;;;;;;;0.98;0.30;;;;;;;12.88;100.00;102964.50;10462537;28;20053;-77
2022/11/11 13:45:02;;;;;;;0.43;0.30;;;;;;;12.82;100.00;102965.09;10462226;28;20404;-77
2022/11/11 13:50:33;;;;;;;0.65;0.40;;;;;;;12.70;100.00;102962.78;10459663;28;20053;-77
2022/11/11 13:56:25;;;;;;;0.30;0.25;;;;;;;12.25;100.00;102981.16;10441958;28;20416;-77
2022/11/11 14:01:45;;;;;;;;;;;;;;;12.17;100.00;102974.72;10452112;28;20041;-78
2022/11/11 14:07:06;;;;;;;0.00;0.00;;;;;;;12.06;100.00;102981.91;10455042;28;19921;-77
2022/11/11 14:12:38;;;;;;;1.42;0.45;;;;;;;11.96;100.00;102990.81;10451352;28;20041;-77
2022/11/11 14:17:58;;;;;;;0.00;0.00;;;;;;;11.87;100.00;102985.16;10454882;28;20496;-77
2022/11/11 14:23:37;;;;;;;0.00;0.00;;;;;;;11.71;100.00;102986.00;10418473;28;20049;-78
2022/11/11 14:29:02;;;;;;;0.30;0.22;;;;;;;11.56;100.00;102998.97;10439274;28;20037;-77
2022/11/11 14:34:57;;;;;;;0.52;0.40;;;;;;;11.24;100.00;103008.38;10448780;28;20123;-77
2022/11/11 14:40:43;;;;;;;0.55;0.20;;;;;;;10.96;100.00;103014.53;10437115;28;20041;-78
2022/11/11 14:46:05;;;;;;;0.20;0.10;;;;;;;10.78;100.00;103025.53;10455243;28;20482;-77
2022/11/11 14:51:41;;;;;;;0.00;0.00;;;;;;;11.01;100.00;103023.41;10458470;28;20123;-77
2022/11/11 14:57:19;;;;;;;1.58;0.55;;;;;;;11.01;100.00;103018.25;10458932;28;20045;-78
2022/11/11 15:03:07;;;;;;;0.10;0.10;;;;;;;10.86;100.00;103014.78;10455521;28;20049;-77
2022/11/11 15:08:54;;;;;;;0.30;0.30;;;;;;;10.89;100.00;103017.56;10454629;28;20041;-77
2022/11/11 15:14:21;;;;;;;0.25;0.25;;;;;;;10.68;100.00;103023.22;10439190;28;20054;-77
2022/11/11 15:19:46;;;;;;;0.38;0.15;;;;;;;10.71;100.00;103019.94;10449563;28;20045;-77
2022/11/11 15:25:37;;;;;;;0.17;0.13;;;;;;;10.46;100.00;103032.22;10460153;28;20053;-78
2022/11/11 15:31:09;;;;;;;0.30;0.27;;;;;;;10.26;100.00;103042.97;10475186;28;20033;-77
2022/11/11 15:36:41;;;;;;;0.45;0.30;;;;;;;10.27;100.00;103045.66;10458140;28;20279;-77
2022/11/11 15:42:02;;;;;;;0.00;0.00;;;;;;;10.18;100.00;103050.25;10457896;28;20049;-77
2022/11/11 15:47:22;;;;;;;0.52;0.10;;;;;;;10.09;100.00;103054.81;10460286;28;20124;-77
2022/11/11 15:52:54;;;;;;;0.10;0.10;;;;;;;9.96;100.00;103050.56;10440589;28;20049;-77
2022/11/11 15:58:16;;;;;;;0.00;0.00;;;;;;;9.88;100.00;103064.66;10445835;28;20128;-78
2022/11/11 16:03:42;;;;;;;0.10;0.10;;;;;;;9.72;100.00;103079.09;10461150;28;20049;-78
2022/11/11 16:09:06;;;;;;;0.30;0.20;;;;;;;9.20;100.00;103090.34;10457009;28;20045;-78
2022/11/11 16:14:30;;;;;;;0.22;0.22;;;;;;;9.35;100.00;103110.16;10467268;28;20045;-77
2022/11/11 16:19:51;;;;;;;0.10;0.10;;;;;;;9.39;100.00;103113.81;10485712;28;20045;-78
2022/11/11 16:25:20;;;;;;;0.20;0.20;;;;;;;9.31;100.00;103127.06;10479069;28;20049;-77
2022/11/11 16:30:45;;;;;;;0.00;0.00;;;;;;;9.16;100.00;103144.94;10442951;28;20053;-77
2022/11/11 16:36:09;;;;;;;0.08;0.08;;;;;;;9.05;100.00;103148.44;10459892;28;20080;-78
2022/11/11 16:41:30;;;;;;;3.85;0.68;;;;;;;9.08;100.00;103148.69;10453212;28;20075;-78
2022/11/11 16:46:51;;;;;;;0.32;0.13;;;;;;;8.95;100.00;103148.63;10458133;28;20111;-77
2022/11/11 16:52:17;;;;;;;0.30;0.20;;;;;;;8.81;100.00;103155.38;10458524;28;20488;-78
2022/11/11 16:57:42;;;;;;;0.25;0.25;;;;;;;8.74;100.00;103159.22;10461085;28;20037;-77
2022/11/11 17:03:23;;;;;;;0.22;0.20;;;;;;;8.75;100.00;103157.53;10456697;28;20053;-78
2022/11/11 17:09:27;;;;;;;0.55;0.40;;;;;;;8.68;100.00;103158.75;10455923;28;20053;-78
2022/11/11 17:14:47;;;;;;;0.05;0.05;;;;;;;8.65;100.00;103166.28;10459827;28;20474;-78
2022/11/11 17:20:09;;;;;;;3.30;2.13;;;;;;;8.40;100.00;103164.50;10453379;28;20492;-78
2022/11/11 17:25:34;;;;;;;9.70;5.60;;;;;;;8.38;100.00;103171.19;10446664;28;20677;-78
2022/11/11 17:31:03;;;;;;;6.35;3.85;;;;;;;7.97;100.00;103171.69;10457007;28;20568;-78
2022/11/11 17:36:44;;;;;;;2.95;2.28;;;;;;;7.14;100.00;103163.06;10440617;28;20053;-78
2022/11/11 17:42:04;;;;;;;4.47;1.83;;;;;;;6.79;100.00;103173.16;10441526;28;20432;-78
2022/11/11 17:47:25;;;;;;;0.65;0.47;;;;;;;6.76;100.00;103185.72;10460020;28;20056;-78
2022/11/11 17:52:45;;;;;;;0.73;0.50;;;;;;;6.75;100.00;103192.50;10460187;28;20084;-77
2022/11/11 17:58:05;;;;;;;0.20;0.20;;;;;;;6.82;100.00;103199.00;10449932;28;20052;-77
2022/11/11 18:03:26;;;;;;;0.93;0.73;;;;;;;6.71;100.00;103274.13;10461458;28;20053;-77
2022/11/11 18:08:46;;;;;;;0.35;0.35;;;;;;;5.95;100.00;103274.00;10464716;28;20049;-78
2022/11/11 18:14:06;;;;;;;0.25;0.25;;;;;;;6.08;100.00;103290.38;10482486;28;20044;-78
2022/11/11 18:19:27;;;;;;;0.30;0.17;;;;;;;5.97;100.00;103305.72;10482306;28;20045;-77
2022/11/11 18:24:49;;;;;;;0.20;0.20;;;;;;;5.80;100.00;103298.28;10483497;28;20053;-78
2022/11/11 18:30:10;;;;;;;0.63;0.52;;;;;;;5.93;100.00;103301.09;10484882;28;20045;-78
2022/11/11 18:35:31;;;;;;;9.80;0.75;;;;;;;5.76;100.00;103307.38;10482577;28;20044;-77
2022/11/11 18:40:59;;;;;;;0.50;0.35;;;;;;;5.72;100.00;103313.91;10479360;28;20447;-78
2022/11/11 18:46:22;;;;;;;1.35;0.90;;;;;;;5.78;100.00;103315.16;10445401;28;20072;-77
2022/11/11 18:51:42;;;;;;;0.95;0.57;;;;;;;5.78;100.00;103323.75;10441662;28;20033;-77
2022/11/11 18:57:54;;;;;;;0.25;0.17;;;;;;;5.53;100.00;103328.44;10454607;28;20054;-78
2022/11/11 19:03:41;;;;;;;0.90;0.60;;;;;;;5.43;100.00;103320.75;10478910;28;20052;-78
2022/11/11 19:09:05;;;;;;;0.20;0.20;;;;;;;5.46;100.00;103326.13;10497936;28;20034;-77
2022/11/11 19:14:26;;;;;;;0.20;0.20;;;;;;;5.47;100.00;103339.03;10492662;28;20056;-77
2022/11/11 19:19:50;;;;;;;0.25;0.25;;;;;;;5.30;100.00;103350.38;10490999;28;20049;-78
2022/11/11 19:25:10;;;;;;;9.13;0.45;;;;;;;5.07;100.00;103356.94;10482312;28;20116;-77
2022/11/11 19:30:30;;;;;;;0.90;0.38;;;;;;;5.10;100.00;103363.06;10472865;28;20073;-77
2022/11/11 19:35:59;;;;;;;0.20;0.20;;;;;;;5.16;100.00;103363.59;10489582;28;20048;-77
2022/11/11 19:41:22;;;;;;;0.28;0.28;;;;;;;5.21;100.00;103378.56;10489980;28;20100;-77
2022/11/11 19:46:42;;;;;;;0.43;0.30;;;;;;;5.16;100.00;103373.84;10492393;28;20053;-78
2022/11/11 19:52:02;;;;;;;0.20;0.20;;;;;;;4.98;100.00;103383.34;10491263;28;20044;-77
2022/11/11 19:57:22;;;;;;;0.20;0.20;;;;;;;4.57;100.00;103391.63;10500389;28;20053;-78
2022/11/11 20:02:43;;;;;;;0.50;0.47;;;;;;;4.61;100.00;103398.78;10458392;28;20053;-78
2022/11/11 20:09:09;;;;;;;1.55;0.73;;;;;;;4.33;100.00;103396.28;10500630;28;20049;-77
2022/11/11 20:14:31;;;;;;;0.45;0.43;;;;;;;4.73;100.00;103410.09;10501089;28;20439;-78
2022/11/11 20:20:14;;;;;;;0.22;0.17;;;;;;;5.05;100.00;103419.75;10501667;28;20041;-78
2022/11/11 20:25:36;;;;;;;0.55;0.40;;;;;;;5.00;100.00;103426.13;10485639;28;20045;-78
2022/11/11 20:30:56;;;;;;;5.35;2.53;;;;;;;4.96;100.00;103435.94;10469621;28;20052;-78
2022/11/11 20:36:16;;;;;;;1.55;0.98;;;;;;;4.57;100.00;103427.38;10475914;28;20052;-78
2022/11/11 20:41:37;;;;;;;1.80;0.55;;;;;;;4.95;100.00;103441.81;10477671;28;20045;-78
2022/11/11 20:46:57;;;;;;;0.68;0.55;;;;;;;4.69;100.00;103448.91;10465972;28;20484;-78
2022/11/11 20:52:25;;;;;;;0.23;0.23;;;;;;;4.50;100.00;103440.34;10474423;28;20041;-77
2022/11/11 20:57:45;;;;;;;0.10;0.10;;;;;;;4.59;100.00;103459.03;10471819;28;20049;-77
2022/11/11 21:03:05;;;;;;;0.10;0.10;;;;;;;4.52;100.00;103461.78;10465419;28;20049;-77
2022/11/11 21:08:51;;;;;;;0.40;0.30;;;;;;;4.68;100.00;103456.44;10470748;28;20124;-77
2022/11/11 21:14:17;;;;;;;0.25;0.17;;;;;;;4.67;100.00;103464.84;10477669;28;20105;-77
2022/11/11 21:19:37;;;;;;;2.42;0.90;;;;;;;4.91;100.00;103472.16;10474097;28;20139;-77
2022/11/11 21:24:58;;;;;;;1.10;0.40;;;;;;;5.18;100.00;103466.84;10450256;28;20416;-77
2022/11/11 21:30:18;;;;;;;0.93;0.55;;;;;;;4.84;100.00;103461.28;10447097;28;20041;-77
2022/11/11 21:35:38;;;;;;;0.30;0.27;;;;;;;4.65;100.00;103471.47;10476860;28;20094;-77
2022/11/11 21:41:08;;;;;;;0.82;0.32;;;;;;;4.54;100.00;103463.72;10469550;28;20275;-77
2022/11/11 21:46:31;;;;;;;1.23;0.93;;;;;;;4.11;100.00;103470.88;10467370;28;20052;-77
2022/11/11 21:51:51;;;;;;;1.08;0.55;;;;;;;3.78;100.00;103469.47;10467869;28;20124;-77
2022/11/11 21:57:12;;;;;;;2.42;0.90;;;;;;;3.28;100.00;103462.97;10451155;28;20046;-78
2022/11/11 22:02:32;;;;;;;0.20;0.20;;;;;;;3.18;100.00;103462.06;10461442;28;20119;-77
2022/11/11 22:07:53;;;;;;;0.00;0.00;;;;;;;3.01;100.00;103459.53;10436538;28;20053;-77
2022/11/11 22:13:14;;;;;;;0.28;0.28;;;;;;;3.06;100.00;103465.06;10465675;28;20044;-77
2022/11/11 22:18:34;;;;;;;0.10;0.00;;;;;;;2.76;100.00;103459.66;10463402;28;20040;-77
2022/11/11 22:24:01;;;;;;;0.00;0.00;;;;;;;2.68;100.00;103450.38;10455415;28;20041;-77
2022/11/11 22:29:21;;;;;;;0.00;0.00;;;;;;;2.88;100.00;103462.53;10463101;28;20427;-77
2022/11/11 22:34:41;;;;;;;;;;;;;;;2.65;100.00;103472.97;10471821;28;20435;-78
2022/11/11 22:40:02;;;;;;;0.10;0.10;;;;;;;2.66;100.00;103460.41;10468331;28;19924;-78
2022/11/11 22:45:22;;;;;;;0.10;0.10;;;;;;;2.58;100.00;103463.84;10464690;28;20049;-78
2022/11/11 22:50:42;;;;;;;1.75;0.25;;;;;;;2.59;100.00;103469.81;10460777;28;20041;-77
2022/11/11 22:56:05;;;;;;;0.13;0.10;;;;;;;2.19;100.00;103457.44;10463754;28;20076;-78
2022/11/11 23:01:28;;;;;;;0.00;0.00;;;;;;;2.38;100.00;103466.91;10462675;28;20267;-77
2022/11/11 23:06:50;;;;;;;0.47;0.30;;;;;;;2.55;100.00;103483.88;10465132;28;20494;-77
2022/11/11 23:12:10;;;;;;;0.10;0.10;;;;;;;2.25;100.00;103474.06;10462194;28;20427;-77
2022/11/11 23:17:30;;;;;;;2.27;0.57;;;;;;;2.79;100.00;103489.63;10459646;28;20412;-77
2022/11/11 23:22:50;;;;;;;0.20;0.10;;;;;;;2.34;100.00;103492.81;10458662;28;20041;-77
2022/11/11 23:28:10;;;;;;;0.00;0.00;;;;;;;2.42;100.00;103494.47;10457623;28;20049;-77
2022/11/11 23:34:05;;;;;;;0.10;0.10;;;;;;;2.47;100.00;103498.38;10457778;28;20049;-77
2022/11/11 23:39:26;;;;;;;0.25;0.25;;;;;;;2.48;100.00;103501.81;10458847;28;20504;-78
2022/11/11 23:44:46;;;;;;;0.73;0.63;;;;;;;2.61;100.00;103511.59;10471044;28;20048;-77
2022/11/11 23:50:07;;;;;;;0.25;0.25;;;;;;;2.88;100.00;103517.63;10497421;28;20045;-78
2022/11/11 23:55:27;;;;;;;0.47;0.22;;;;;;;3.12;100.00;103522.63;10466154;28;20049;-78
